sensor_id;sensor_type;location;lat;lon;timestamp;P1;durP1;ratioP1;P2;durP2;ratioP2
38853;SDS011;24606;51.992;4.198;2023-04-09T00:04:16;19.08;;;10.77;;
38853;SDS011;24606;51.992;4.198;2023-04-09T00:09:17;20.67;;;10.63;;
38853;SDS011;24606;51.992;4.198;2023-04-09T00:19:23;13.80;;;9.20;;
38853;SDS011;24606;51.992;4.198;2023-04-09T00:24:25;17.70;;;9.93;;
38853;SDS011;24606;51.992;4.198;2023-04-09T00:29:26;16.75;;;9.80;;
38853;SDS011;24606;51.992;4.198;2023-04-09T00:34:30;15.25;;;9.40;;
38853;SDS011;24606;51.992;4.198;2023-04-09T00:39:31;17.08;;;9.23;;
38853;SDS011;24606;51.992;4.198;2023-04-09T00:44:33;15.63;;;9.73;;
38853;SDS011;24606;51.992;4.198;2023-04-09T00:49:36;17.42;;;9.90;;
38853;SDS011;24606;51.992;4.198;2023-04-09T00:54:38;15.43;;;9.52;;
38853;SDS011;24606;51.992;4.198;2023-04-09T00:59:40;16.98;;;9.88;;
38853;SDS011;24606;51.992;4.198;2023-04-09T01:04:43;17.35;;;9.15;;
38853;SDS011;24606;51.992;4.198;2023-04-09T01:09:47;15.90;;;9.25;;
38853;SDS011;24606;51.992;4.198;2023-04-09T01:14:55;16.80;;;9.52;;
38853;SDS011;24606;51.992;4.198;2023-04-09T01:20:07;17.33;;;8.88;;
38853;SDS011;24606;51.992;4.198;2023-04-09T01:25:15;13.52;;;8.48;;
38853;SDS011;24606;51.992;4.198;2023-04-09T01:30:29;12.48;;;7.40;;
38853;SDS011;24606;51.992;4.198;2023-04-09T01:35:32;13.30;;;8.15;;
38853;SDS011;24606;51.992;4.198;2023-04-09T01:40:34;11.82;;;8.02;;
38853;SDS011;24606;51.992;4.198;2023-04-09T01:45:37;12.75;;;8.02;;
38853;SDS011;24606;51.992;4.198;2023-04-09T01:50:40;11.10;;;6.93;;
38853;SDS011;24606;51.992;4.198;2023-04-09T02:00:45;11.07;;;7.22;;
38853;SDS011;24606;51.992;4.198;2023-04-09T02:05:50;11.18;;;6.95;;
38853;SDS011;24606;51.992;4.198;2023-04-09T02:10:57;11.90;;;7.40;;
38853;SDS011;24606;51.992;4.198;2023-04-09T02:16:02;11.52;;;6.40;;
38853;SDS011;24606;51.992;4.198;2023-04-09T02:21:05;12.15;;;6.68;;
38853;SDS011;24606;51.992;4.198;2023-04-09T02:26:07;12.27;;;6.88;;
38853;SDS011;24606;51.992;4.198;2023-04-09T02:31:10;11.30;;;6.90;;
38853;SDS011;24606;51.992;4.198;2023-04-09T02:36:12;8.63;;;6.20;;
38853;SDS011;24606;51.992;4.198;2023-04-09T02:41:14;8.77;;;5.85;;
38853;SDS011;24606;51.992;4.198;2023-04-09T02:46:17;9.30;;;6.25;;
38853;SDS011;24606;51.992;4.198;2023-04-09T02:51:19;10.57;;;6.50;;
38853;SDS011;24606;51.992;4.198;2023-04-09T02:56:21;7.90;;;5.80;;
38853;SDS011;24606;51.992;4.198;2023-04-09T03:01:24;10.35;;;6.55;;
38853;SDS011;24606;51.992;4.198;2023-04-09T03:06:26;7.85;;;5.50;;
38853;SDS011;24606;51.992;4.198;2023-04-09T03:11:28;10.13;;;6.65;;
38853;SDS011;24606;51.992;4.198;2023-04-09T03:16:31;8.75;;;5.32;;
38853;SDS011;24606;51.992;4.198;2023-04-09T03:21:33;8.48;;;5.85;;
38853;SDS011;24606;51.992;4.198;2023-04-09T03:26:35;9.13;;;6.07;;
38853;SDS011;24606;51.992;4.198;2023-04-09T03:31:38;9.75;;;6.05;;
38853;SDS011;24606;51.992;4.198;2023-04-09T03:36:40;9.23;;;5.90;;
38853;SDS011;24606;51.992;4.198;2023-04-09T03:41:42;7.90;;;5.43;;
38853;SDS011;24606;51.992;4.198;2023-04-09T03:46:45;7.38;;;5.28;;
38853;SDS011;24606;51.992;4.198;2023-04-09T03:51:47;7.85;;;5.47;;
38853;SDS011;24606;51.992;4.198;2023-04-09T03:56:49;5.65;;;4.25;;
38853;SDS011;24606;51.992;4.198;2023-04-09T04:01:52;7.20;;;4.28;;
38853;SDS011;24606;51.992;4.198;2023-04-09T04:06:54;6.55;;;4.82;;
38853;SDS011;24606;51.992;4.198;2023-04-09T04:11:56;7.25;;;5.13;;
38853;SDS011;24606;51.992;4.198;2023-04-09T04:16:59;7.47;;;4.82;;
38853;SDS011;24606;51.992;4.198;2023-04-09T04:22:01;7.35;;;5.22;;
38853;SDS011;24606;51.992;4.198;2023-04-09T04:27:03;5.93;;;4.65;;
38853;SDS011;24606;51.992;4.198;2023-04-09T04:32:07;6.88;;;5.03;;
38853;SDS011;24606;51.992;4.198;2023-04-09T04:37:09;5.70;;;4.53;;
38853;SDS011;24606;51.992;4.198;2023-04-09T04:42:13;6.60;;;4.38;;
38853;SDS011;24606;51.992;4.198;2023-04-09T04:47:17;5.70;;;4.43;;
38853;SDS011;24606;51.992;4.198;2023-04-09T04:52:19;6.50;;;4.95;;
38853;SDS011;24606;51.992;4.198;2023-04-09T04:57:21;5.63;;;4.38;;
38853;SDS011;24606;51.992;4.198;2023-04-09T05:02:24;6.47;;;4.22;;
38853;SDS011;24606;51.992;4.198;2023-04-09T05:07:26;5.25;;;4.07;;
38853;SDS011;24606;51.992;4.198;2023-04-09T05:12:29;5.70;;;3.88;;
38853;SDS011;24606;51.992;4.198;2023-04-09T05:17:33;5.68;;;3.85;;
38853;SDS011;24606;51.992;4.198;2023-04-09T05:22:35;5.82;;;4.40;;
38853;SDS011;24606;51.992;4.198;2023-04-09T05:27:37;5.50;;;3.65;;
38853;SDS011;24606;51.992;4.198;2023-04-09T05:32:40;5.55;;;3.63;;
38853;SDS011;24606;51.992;4.198;2023-04-09T05:37:42;5.65;;;3.90;;
38853;SDS011;24606;51.992;4.198;2023-04-09T05:42:44;6.90;;;3.63;;
38853;SDS011;24606;51.992;4.198;2023-04-09T05:47:47;4.90;;;3.60;;
38853;SDS011;24606;51.992;4.198;2023-04-09T05:52:48;3.67;;;3.25;;
38853;SDS011;24606;51.992;4.198;2023-04-09T05:57:50;3.67;;;3.03;;
38853;SDS011;24606;51.992;4.198;2023-04-09T06:02:54;3.90;;;3.10;;
38853;SDS011;24606;51.992;4.198;2023-04-09T06:07:56;3.65;;;3.05;;
38853;SDS011;24606;51.992;4.198;2023-04-09T10:16:37;19.88;;;11.50;;
38853;SDS011;24606;51.992;4.198;2023-04-09T10:21:40;18.95;;;12.15;;
38853;SDS011;24606;51.992;4.198;2023-04-09T10:26:46;25.15;;;12.75;;
38853;SDS011;24606;51.992;4.198;2023-04-09T10:31:54;24.42;;;13.63;;
38853;SDS011;24606;51.992;4.198;2023-04-09T10:37:05;23.23;;;13.02;;
38853;SDS011;24606;51.992;4.198;2023-04-09T10:42:10;22.25;;;13.05;;
38853;SDS011;24606;51.992;4.198;2023-04-09T10:47:30;22.23;;;12.55;;
38853;SDS011;24606;51.992;4.198;2023-04-09T10:52:32;21.63;;;11.80;;
38853;SDS011;24606;51.992;4.198;2023-04-09T11:00:35;20.90;;;11.20;;
38853;SDS011;24606;51.992;4.198;2023-04-09T11:05:38;26.50;;;12.90;;
38853;SDS011;24606;51.992;4.198;2023-04-09T11:10:43;27.92;;;13.75;;
38853;SDS011;24606;51.992;4.198;2023-04-09T11:15:48;25.42;;;13.45;;
38853;SDS011;24606;51.992;4.198;2023-04-09T11:20:52;29.63;;;15.68;;
38853;SDS011;24606;51.992;4.198;2023-04-09T11:25:55;26.10;;;13.93;;
38853;SDS011;24606;51.992;4.198;2023-04-09T11:30:58;21.00;;;12.57;;
38853;SDS011;24606;51.992;4.198;2023-04-09T11:36:01;22.25;;;13.73;;
38853;SDS011;24606;51.992;4.198;2023-04-09T11:41:05;23.30;;;13.70;;
38853;SDS011;24606;51.992;4.198;2023-04-09T11:46:13;20.35;;;12.38;;
38853;SDS011;24606;51.992;4.198;2023-04-09T11:51:15;21.83;;;13.25;;
38853;SDS011;24606;51.992;4.198;2023-04-09T12:01:21;19.73;;;11.57;;
38853;SDS011;24606;51.992;4.198;2023-04-09T12:06:24;19.67;;;12.15;;
38853;SDS011;24606;51.992;4.198;2023-04-09T12:11:27;19.58;;;11.80;;
38853;SDS011;24606;51.992;4.198;2023-04-09T12:16:32;21.05;;;11.98;;
38853;SDS011;24606;51.992;4.198;2023-04-09T12:21:44;23.05;;;12.23;;
38853;SDS011;24606;51.992;4.198;2023-04-09T12:26:47;19.65;;;12.32;;
38853;SDS011;24606;51.992;4.198;2023-04-09T12:31:51;18.23;;;11.25;;
38853;SDS011;24606;51.992;4.198;2023-04-09T12:36:53;19.35;;;12.18;;
38853;SDS011;24606;51.992;4.198;2023-04-09T12:41:54;20.25;;;12.13;;
38853;SDS011;24606;51.992;4.198;2023-04-09T12:46:58;19.90;;;11.40;;
38853;SDS011;24606;51.992;4.198;2023-04-09T12:52:00;16.90;;;11.07;;
38853;SDS011;24606;51.992;4.198;2023-04-09T12:57:02;19.90;;;11.65;;
38853;SDS011;24606;51.992;4.198;2023-04-09T13:02:05;19.35;;;12.02;;
38853;SDS011;24606;51.992;4.198;2023-04-09T13:07:07;20.05;;;12.75;;
38853;SDS011;24606;51.992;4.198;2023-04-09T13:12:09;23.98;;;12.80;;
38853;SDS011;24606;51.992;4.198;2023-04-09T13:17:13;24.95;;;12.85;;
38853;SDS011;24606;51.992;4.198;2023-04-09T13:22:15;23.27;;;12.45;;
38853;SDS011;24606;51.992;4.198;2023-04-09T13:27:16;22.35;;;12.60;;
38853;SDS011;24606;51.992;4.198;2023-04-09T13:32:20;21.15;;;12.10;;
38853;SDS011;24606;51.992;4.198;2023-04-09T13:37:23;20.15;;;10.77;;
38853;SDS011;24606;51.992;4.198;2023-04-09T13:42:25;19.30;;;11.43;;
38853;SDS011;24606;51.992;4.198;2023-04-09T13:47:28;19.45;;;11.15;;
38853;SDS011;24606;51.992;4.198;2023-04-09T13:52:30;19.13;;;11.60;;
38853;SDS011;24606;51.992;4.198;2023-04-09T13:57:32;18.88;;;11.27;;
38853;SDS011;24606;51.992;4.198;2023-04-09T14:02:35;24.33;;;14.45;;
38853;SDS011;24606;51.992;4.198;2023-04-09T14:07:37;21.02;;;11.77;;
38853;SDS011;24606;51.992;4.198;2023-04-09T14:12:39;21.52;;;11.93;;
38853;SDS011;24606;51.992;4.198;2023-04-09T14:22:44;13.18;;;9.60;;
38853;SDS011;24606;51.992;4.198;2023-04-09T14:27:48;14.57;;;10.82;;
38853;SDS011;24606;51.992;4.198;2023-04-09T14:32:52;15.32;;;10.10;;
38853;SDS011;24606;51.992;4.198;2023-04-09T14:37:54;15.80;;;10.05;;
38853;SDS011;24606;51.992;4.198;2023-04-09T14:42:57;11.95;;;8.90;;
38853;SDS011;24606;51.992;4.198;2023-04-09T14:48:00;16.88;;;10.13;;
38853;SDS011;24606;51.992;4.198;2023-04-09T14:53:02;11.38;;;8.95;;
38853;SDS011;24606;51.992;4.198;2023-04-09T15:03:08;15.70;;;8.63;;
38853;SDS011;24606;51.992;4.198;2023-04-09T15:08:11;12.98;;;8.00;;
38853;SDS011;24606;51.992;4.198;2023-04-09T15:13:13;10.95;;;7.60;;
38853;SDS011;24606;51.992;4.198;2023-04-09T15:18:16;10.25;;;7.90;;
38853;SDS011;24606;51.992;4.198;2023-04-09T15:23:18;9.88;;;7.63;;
38853;SDS011;24606;51.992;4.198;2023-04-09T15:28:20;12.63;;;8.55;;
38853;SDS011;24606;51.992;4.198;2023-04-09T15:33:24;13.23;;;8.23;;
38853;SDS011;24606;51.992;4.198;2023-04-09T15:38:27;11.35;;;8.15;;
38853;SDS011;24606;51.992;4.198;2023-04-09T15:43:29;9.95;;;6.85;;
38853;SDS011;24606;51.992;4.198;2023-04-09T15:53:34;11.68;;;7.53;;
38853;SDS011;24606;51.992;4.198;2023-04-09T15:58:36;9.35;;;6.88;;
38853;SDS011;24606;51.992;4.198;2023-04-09T16:03:39;12.35;;;7.53;;
38853;SDS011;24606;51.992;4.198;2023-04-09T16:08:41;9.10;;;6.75;;
38853;SDS011;24606;51.992;4.198;2023-04-09T16:13:43;14.25;;;9.93;;
38853;SDS011;24606;51.992;4.198;2023-04-09T16:18:46;9.93;;;7.75;;
38853;SDS011;24606;51.992;4.198;2023-04-09T16:23:48;10.13;;;7.65;;
38853;SDS011;24606;51.992;4.198;2023-04-09T16:28:50;12.43;;;8.90;;
38853;SDS011;24606;51.992;4.198;2023-04-09T16:33:53;14.40;;;9.65;;
38853;SDS011;24606;51.992;4.198;2023-04-09T16:38:55;15.18;;;9.43;;
38853;SDS011;24606;51.992;4.198;2023-04-09T16:43:57;15.77;;;9.75;;
38853;SDS011;24606;51.992;4.198;2023-04-09T16:49:01;14.30;;;9.73;;
38853;SDS011;24606;51.992;4.198;2023-04-09T16:54:03;14.63;;;9.88;;
38853;SDS011;24606;51.992;4.198;2023-04-09T16:59:04;17.02;;;10.95;;
38853;SDS011;24606;51.992;4.198;2023-04-09T17:04:08;15.55;;;10.32;;
38853;SDS011;24606;51.992;4.198;2023-04-09T17:09:09;17.23;;;10.57;;
38853;SDS011;24606;51.992;4.198;2023-04-09T17:14:11;18.83;;;12.10;;
38853;SDS011;24606;51.992;4.198;2023-04-09T17:19:14;17.92;;;11.25;;
38853;SDS011;24606;51.992;4.198;2023-04-09T17:24:17;39.90;;;25.33;;
38853;SDS011;24606;51.992;4.198;2023-04-09T17:29:18;38.90;;;23.10;;
38853;SDS011;24606;51.992;4.198;2023-04-09T17:34:22;27.65;;;14.15;;
38853;SDS011;24606;51.992;4.198;2023-04-09T17:39:24;20.00;;;13.45;;
38853;SDS011;24606;51.992;4.198;2023-04-09T17:44:28;34.58;;;20.38;;
38853;SDS011;24606;51.992;4.198;2023-04-09T17:49:35;39.90;;;24.70;;
38853;SDS011;24606;51.992;4.198;2023-04-09T17:54:38;23.30;;;13.35;;
38853;SDS011;24606;51.992;4.198;2023-04-09T17:59:40;30.50;;;17.95;;
38853;SDS011;24606;51.992;4.198;2023-04-09T18:04:43;26.70;;;17.38;;
38853;SDS011;24606;51.992;4.198;2023-04-09T18:09:45;37.50;;;22.35;;
38853;SDS011;24606;51.992;4.198;2023-04-09T18:14:47;21.65;;;13.93;;
38853;SDS011;24606;51.992;4.198;2023-04-09T18:19:51;14.70;;;10.40;;
38853;SDS011;24606;51.992;4.198;2023-04-09T18:24:53;15.13;;;10.77;;
38853;SDS011;24606;51.992;4.198;2023-04-09T18:29:56;11.73;;;10.02;;
38853;SDS011;24606;51.992;4.198;2023-04-09T18:34:59;19.00;;;11.63;;
38853;SDS011;24606;51.992;4.198;2023-04-09T18:40:01;17.15;;;12.80;;
38853;SDS011;24606;51.992;4.198;2023-04-09T18:50:07;31.05;;;20.25;;
38853;SDS011;24606;51.992;4.198;2023-04-09T18:55:09;36.25;;;24.60;;
38853;SDS011;24606;51.992;4.198;2023-04-09T19:00:12;46.25;;;32.15;;
38853;SDS011;24606;51.992;4.198;2023-04-09T19:05:16;61.03;;;38.58;;
38853;SDS011;24606;51.992;4.198;2023-04-09T19:10:18;84.88;;;57.10;;
38853;SDS011;24606;51.992;4.198;2023-04-09T19:15:21;91.30;;;62.63;;
38853;SDS011;24606;51.992;4.198;2023-04-09T19:20:26;100.30;;;68.57;;
38853;SDS011;24606;51.992;4.198;2023-04-09T19:25:28;114.00;;;85.25;;
38853;SDS011;24606;51.992;4.198;2023-04-09T19:35:33;39.53;;;27.30;;
38853;SDS011;24606;51.992;4.198;2023-04-09T19:40:39;31.98;;;20.77;;
38853;SDS011;24606;51.992;4.198;2023-04-09T19:50:44;25.08;;;16.17;;
38853;SDS011;24606;51.992;4.198;2023-04-09T19:55:48;21.77;;;15.55;;
38853;SDS011;24606;51.992;4.198;2023-04-09T20:00:51;24.45;;;13.50;;
38853;SDS011;24606;51.992;4.198;2023-04-09T20:05:55;19.98;;;13.27;;
38853;SDS011;24606;51.992;4.198;2023-04-09T20:10:57;17.48;;;11.88;;
38853;SDS011;24606;51.992;4.198;2023-04-09T20:15:59;15.45;;;10.70;;
38853;SDS011;24606;51.992;4.198;2023-04-09T20:26:04;17.95;;;11.32;;
38853;SDS011;24606;51.992;4.198;2023-04-09T20:31:08;15.68;;;10.57;;
38853;SDS011;24606;51.992;4.198;2023-04-09T20:41:16;15.60;;;9.73;;
38853;SDS011;24606;51.992;4.198;2023-04-09T20:46:19;12.82;;;9.20;;
38853;SDS011;24606;51.992;4.198;2023-04-09T20:51:23;15.45;;;10.95;;
38853;SDS011;24606;51.992;4.198;2023-04-09T20:56:25;20.83;;;14.13;;
38853;SDS011;24606;51.992;4.198;2023-04-09T21:06:29;17.40;;;12.47;;
38853;SDS011;24606;51.992;4.198;2023-04-09T21:11:31;15.65;;;10.65;;
38853;SDS011;24606;51.992;4.198;2023-04-09T21:16:33;16.48;;;12.00;;
38853;SDS011;24606;51.992;4.198;2023-04-09T21:21:36;23.42;;;15.80;;
38853;SDS011;24606;51.992;4.198;2023-04-09T21:26:38;16.20;;;12.20;;
38853;SDS011;24606;51.992;4.198;2023-04-09T21:31:40;14.70;;;11.27;;
38853;SDS011;24606;51.992;4.198;2023-04-09T21:36:43;14.68;;;10.15;;
38853;SDS011;24606;51.992;4.198;2023-04-09T21:41:45;15.07;;;10.90;;
38853;SDS011;24606;51.992;4.198;2023-04-09T21:46:47;14.63;;;9.93;;
38853;SDS011;24606;51.992;4.198;2023-04-09T21:51:50;17.17;;;10.18;;
38853;SDS011;24606;51.992;4.198;2023-04-09T21:56:54;14.38;;;10.27;;
38853;SDS011;24606;51.992;4.198;2023-04-09T22:01:57;15.48;;;10.10;;
38853;SDS011;24606;51.992;4.198;2023-04-09T22:07:00;16.98;;;11.32;;
38853;SDS011;24606;51.992;4.198;2023-04-09T22:12:02;17.75;;;11.43;;
38853;SDS011;24606;51.992;4.198;2023-04-09T22:17:05;16.55;;;11.65;;
38853;SDS011;24606;51.992;4.198;2023-04-09T22:22:09;17.17;;;12.70;;
38853;SDS011;24606;51.992;4.198;2023-04-09T22:27:14;22.88;;;16.60;;
38853;SDS011;24606;51.992;4.198;2023-04-09T22:32:15;26.85;;;20.40;;
38853;SDS011;24606;51.992;4.198;2023-04-09T22:37:19;28.88;;;20.30;;
38853;SDS011;24606;51.992;4.198;2023-04-09T22:42:21;33.33;;;23.55;;
38853;SDS011;24606;51.992;4.198;2023-04-09T22:47:24;34.15;;;26.45;;
38853;SDS011;24606;51.992;4.198;2023-04-09T22:52:27;33.22;;;26.00;;
38853;SDS011;24606;51.992;4.198;2023-04-09T22:57:29;34.83;;;27.00;;
38853;SDS011;24606;51.992;4.198;2023-04-09T23:02:31;33.45;;;24.17;;
38853;SDS011;24606;51.992;4.198;2023-04-09T23:07:34;37.63;;;27.17;;
38853;SDS011;24606;51.992;4.198;2023-04-09T23:12:36;34.30;;;26.00;;
38853;SDS011;24606;51.992;4.198;2023-04-09T23:17:38;33.70;;;27.05;;
38853;SDS011;24606;51.992;4.198;2023-04-09T23:22:44;34.40;;;26.60;;
38853;SDS011;24606;51.992;4.198;2023-04-09T23:27:46;35.28;;;26.95;;
38853;SDS011;24606;51.992;4.198;2023-04-09T23:32:48;33.42;;;25.20;;
38853;SDS011;24606;51.992;4.198;2023-04-09T23:37:53;34.33;;;24.42;;
38853;SDS011;24606;51.992;4.198;2023-04-09T23:42:55;28.83;;;21.50;;
38853;SDS011;24606;51.992;4.198;2023-04-09T23:47:57;26.77;;;21.48;;
38853;SDS011;24606;51.992;4.198;2023-04-09T23:53:00;30.65;;;22.55;;
38853;SDS011;24606;51.992;4.198;2023-04-09T23:58:03;30.15;;;22.58;;
